createdAt,value
2024-03-13T00:01:15.245Z,15.30
2024-03-13T00:03:52.976Z,12.90
2024-03-13T00:06:26.539Z,14.20
2024-03-13T00:09:00.714Z,13.80
2024-03-13T00:11:34.598Z,13.40
2024-03-13T00:14:08.272Z,13.60
2024-03-13T00:16:42.178Z,13.80
2024-03-13T00:19:15.763Z,12.90
2024-03-13T00:21:49.272Z,14.80
2024-03-13T00:24:22.704Z,14.30
2024-03-13T00:26:59.202Z,14.90
2024-03-13T00:29:32.933Z,14.90
2024-03-13T00:32:06.985Z,15.30
2024-03-13T00:34:41.038Z,17.20
2024-03-13T00:37:15.525Z,16.00
2024-03-13T00:39:49.125Z,15.80
2024-03-13T00:42:22.971Z,16.10
2024-03-13T00:44:56.755Z,14.70
2024-03-13T00:47:31.488Z,17.30
2024-03-13T00:50:05.935Z,16.30
2024-03-13T00:52:40.090Z,17.20
2024-03-13T00:55:13.980Z,17.40
2024-03-13T00:57:48.297Z,17.10
2024-03-13T01:00:27.706Z,16.80
2024-03-13T01:03:01.896Z,18.40
2024-03-13T01:05:35.830Z,17.10
2024-03-13T01:08:10.825Z,17.70
2024-03-13T01:10:44.820Z,16.80
2024-03-13T01:13:20.411Z,16.40
2024-03-13T01:15:54.214Z,17.20
2024-03-13T01:18:28.434Z,15.40
2024-03-13T01:21:02.472Z,14.10
2024-03-13T01:23:36.772Z,15.90
2024-03-13T01:26:10.378Z,15.00
2024-03-13T01:28:45.422Z,15.40
2024-03-13T01:31:20.831Z,13.90
2024-03-13T01:33:57.786Z,13.20
2024-03-13T01:36:45.123Z,12.90
2024-03-13T01:39:19.356Z,14.10
2024-03-13T01:42:10.093Z,13.60
2024-03-13T01:45:27.818Z,14.10
2024-03-13T01:48:19.103Z,13.50
2024-03-13T01:51:10.664Z,13.90
2024-03-13T01:54:02.076Z,14.90
2024-03-13T01:56:35.713Z,15.20
2024-03-13T01:59:22.288Z,14.30
2024-03-13T02:02:14.029Z,15.50
2024-03-13T02:04:49.946Z,15.10
2024-03-13T02:07:24.337Z,15.70
2024-03-13T02:10:00.114Z,15.70
2024-03-13T02:12:33.932Z,15.60
2024-03-13T02:15:08.698Z,15.60
2024-03-13T02:17:43.450Z,16.30
2024-03-13T02:20:17.071Z,15.20
2024-03-13T02:22:51.896Z,13.70
2024-03-13T02:25:22.756Z,14.80
2024-03-13T02:27:54.026Z,16.20
2024-03-13T02:30:24.436Z,15.00
2024-03-13T02:32:55.214Z,16.70
2024-03-13T02:35:25.746Z,14.90
2024-03-13T02:37:56.700Z,16.10
2024-03-13T02:40:27.016Z,16.80
2024-03-13T02:42:57.602Z,16.30
2024-03-13T02:45:28.923Z,17.10
2024-03-13T02:47:59.462Z,18.90
2024-03-13T02:50:30.559Z,16.50
2024-03-13T02:53:01.157Z,17.10
2024-03-13T02:55:31.560Z,17.60
2024-03-13T02:58:04.059Z,18.20
2024-03-13T03:00:34.700Z,20.80
2024-03-13T03:03:05.116Z,18.50
2024-03-13T03:05:37.089Z,18.70
2024-03-13T03:08:08.605Z,15.70
2024-03-13T03:10:39.724Z,17.20
2024-03-13T03:13:12.180Z,19.00
2024-03-13T03:15:44.604Z,19.40
2024-03-13T03:18:15.000Z,18.70
2024-03-13T03:20:47.240Z,20.60
2024-03-13T03:23:18.509Z,19.40
2024-03-13T03:25:50.049Z,18.90
2024-03-13T03:28:20.993Z,18.70
2024-03-13T03:30:53.209Z,17.30
2024-03-13T03:33:24.749Z,17.90
2024-03-13T03:35:55.058Z,15.10
2024-03-13T03:38:27.525Z,16.40
2024-03-13T03:40:57.973Z,16.40
2024-03-13T03:43:28.729Z,17.20
2024-03-13T03:45:59.376Z,15.80
2024-03-13T03:48:29.931Z,16.30
2024-03-13T03:51:00.807Z,19.50
2024-03-13T03:53:31.232Z,17.50
2024-03-13T03:56:02.521Z,17.40
2024-03-13T03:58:32.999Z,16.70
2024-03-13T04:01:03.704Z,15.60
2024-03-13T04:03:34.451Z,16.30
2024-03-13T04:06:06.381Z,16.60
2024-03-13T04:08:37.357Z,15.60
2024-03-13T04:11:07.974Z,17.10
2024-03-13T04:13:38.712Z,15.70
2024-03-13T04:16:11.901Z,16.90
2024-03-13T04:18:44.872Z,18.00
2024-03-13T04:21:15.281Z,17.40
2024-03-13T04:23:51.119Z,17.40
2024-03-13T04:26:21.460Z,18.10
2024-03-13T04:28:52.741Z,18.50
2024-03-13T04:31:23.730Z,18.60
2024-03-13T04:33:55.673Z,18.50
2024-03-13T04:36:26.373Z,18.30
2024-03-13T04:38:56.988Z,17.50
2024-03-13T04:41:27.795Z,17.80
2024-03-13T04:43:58.226Z,17.90
2024-03-13T04:46:28.625Z,16.20
2024-03-13T04:48:59.081Z,17.30
2024-03-13T04:51:29.711Z,17.90
2024-03-13T04:54:00.220Z,17.20
2024-03-13T04:56:30.696Z,16.60
2024-03-13T04:59:01.222Z,17.20
2024-03-13T05:01:32.303Z,17.40
2024-03-13T05:04:03.092Z,18.40
2024-03-13T05:06:33.936Z,16.50
2024-03-13T05:09:05.208Z,16.10
2024-03-13T05:11:35.863Z,17.00
2024-03-13T05:14:07.720Z,18.90
2024-03-13T05:16:41.955Z,16.90
2024-03-13T05:19:12.390Z,17.10
2024-03-13T05:21:42.738Z,15.50
2024-03-13T05:24:15.540Z,17.20
2024-03-13T05:26:45.935Z,16.00
2024-03-13T05:29:16.437Z,17.20
2024-03-13T05:31:48.192Z,17.20
2024-03-13T05:34:18.739Z,15.20
2024-03-13T05:36:49.307Z,15.00
2024-03-13T05:39:24.147Z,16.30
2024-03-13T05:41:54.717Z,15.40
2024-03-13T05:44:25.214Z,16.20
2024-03-13T05:46:56.028Z,17.00
2024-03-13T05:49:26.563Z,18.60
2024-03-13T05:51:58.491Z,16.30
2024-03-13T05:54:29.919Z,18.20
2024-03-13T05:57:00.363Z,18.70
2024-03-13T05:59:31.516Z,18.40
2024-03-13T06:02:02.242Z,19.20
2024-03-13T06:04:35.839Z,16.90
2024-03-13T06:07:08.772Z,18.30
2024-03-13T06:09:39.414Z,19.60
2024-03-13T06:12:09.954Z,19.50
2024-03-13T06:14:40.628Z,19.30
2024-03-13T06:17:10.920Z,19.20
2024-03-13T06:19:41.354Z,19.00
2024-03-13T06:22:11.821Z,19.20
2024-03-13T06:24:42.308Z,16.50
2024-03-13T06:27:17.101Z,16.10
2024-03-13T06:30:01.014Z,16.70
2024-03-13T06:32:31.892Z,18.10
2024-03-13T06:35:04.070Z,17.30
2024-03-13T06:37:35.294Z,15.50
2024-03-13T06:40:06.966Z,13.90
2024-03-13T06:42:37.404Z,16.00
2024-03-13T06:45:08.482Z,14.20
2024-03-13T06:47:39.330Z,12.90
2024-03-13T06:50:10.752Z,15.50
2024-03-13T06:52:41.513Z,14.50
2024-03-13T06:55:12.114Z,15.30
2024-03-13T06:57:42.496Z,13.60
2024-03-13T07:00:13.280Z,15.00
2024-03-13T07:02:43.632Z,14.00
2024-03-13T07:05:16.499Z,12.60
2024-03-13T07:07:47.065Z,12.20
2024-03-13T07:10:17.608Z,12.20
2024-03-13T07:12:48.100Z,11.00
2024-03-13T07:15:18.877Z,10.20
2024-03-13T07:17:49.391Z,12.10
2024-03-13T07:20:19.744Z,11.30
2024-03-13T07:22:50.182Z,12.00
2024-03-13T07:25:21.777Z,12.20
2024-03-13T07:27:52.842Z,12.50
2024-03-13T07:30:25.893Z,11.10
2024-03-13T07:32:56.510Z,10.30
2024-03-13T07:35:27.730Z,10.10
2024-03-13T07:37:59.709Z,10.60
2024-03-13T07:40:33.602Z,9.90
2024-03-13T07:43:04.437Z,12.40
2024-03-13T07:45:35.151Z,11.90
2024-03-13T07:48:09.407Z,11.00
2024-03-13T07:50:41.083Z,11.20
2024-03-13T07:53:11.538Z,11.00
2024-03-13T07:55:42.017Z,11.30
2024-03-13T07:58:13.525Z,11.30
2024-03-13T08:00:45.053Z,9.30
2024-03-13T08:03:15.702Z,11.00
2024-03-13T08:05:46.720Z,11.30
2024-03-13T09:07:18.816Z,8.50
2024-03-13T09:09:49.241Z,12.10
2024-03-13T09:12:19.815Z,13.40
2024-03-13T09:14:50.837Z,11.00
2024-03-13T09:17:21.374Z,10.80
2024-03-13T09:19:53.511Z,10.80
2024-03-13T09:22:23.945Z,13.00
2024-03-13T09:24:55.485Z,11.50
2024-03-13T09:27:25.899Z,11.10
2024-03-13T09:29:56.675Z,11.60
2024-03-13T09:32:27.240Z,9.70
2024-03-13T09:34:57.743Z,11.30
2024-03-13T09:37:28.733Z,9.80
2024-03-13T09:39:59.554Z,9.80
2024-03-13T09:42:30.285Z,9.00
2024-03-13T09:45:00.859Z,8.40
2024-03-13T09:47:31.473Z,10.30
2024-03-13T09:50:04.362Z,11.00
2024-03-13T09:52:34.776Z,12.10
2024-03-13T09:55:05.800Z,12.80
2024-03-13T09:57:36.440Z,13.00
2024-03-13T10:00:09.689Z,14.20
2024-03-13T10:02:41.447Z,14.30
2024-03-13T10:05:12.932Z,13.50
2024-03-13T10:07:44.103Z,14.30
2024-03-13T10:10:19.659Z,15.30
2024-03-13T10:12:50.146Z,14.10
2024-03-13T10:15:20.908Z,16.30
2024-03-13T10:17:52.502Z,16.00
2024-03-13T10:20:24.059Z,17.90
2024-03-13T10:22:55.521Z,16.60
2024-03-13T10:25:26.414Z,18.50
2024-03-13T10:27:56.905Z,15.90
2024-03-13T10:30:27.981Z,16.40
2024-03-13T10:32:58.615Z,16.50
2024-03-13T10:35:29.633Z,16.40
2024-03-13T10:38:00.070Z,16.80
2024-03-13T10:40:32.144Z,16.80
2024-03-13T10:43:02.781Z,15.60
2024-03-13T10:45:33.388Z,15.10
2024-03-13T10:48:05.061Z,16.90
2024-03-13T10:50:35.615Z,15.50
2024-03-13T10:53:07.253Z,15.50
2024-03-13T10:55:39.044Z,16.00
2024-03-13T10:58:10.712Z,14.20
2024-03-13T11:00:41.590Z,15.30
2024-03-13T11:03:14.028Z,14.80
2024-03-13T11:05:45.190Z,15.40
2024-03-13T11:08:17.400Z,15.70
2024-03-13T11:11:01.902Z,16.40
2024-03-13T11:13:41.285Z,14.50
2024-03-13T11:16:12.303Z,15.70
2024-03-13T11:18:44.123Z,14.50
2024-03-13T11:21:14.864Z,15.10
2024-03-13T11:23:46.392Z,16.00
2024-03-13T11:26:17.050Z,15.40
2024-03-13T11:28:48.369Z,15.10
2024-03-13T11:31:19.165Z,14.90
2024-03-13T11:33:49.641Z,16.00
2024-03-13T11:36:20.353Z,15.80
2024-03-13T11:38:51.064Z,15.80
2024-03-13T11:41:22.317Z,17.90
2024-03-13T11:43:56.735Z,15.40
2024-03-13T11:46:35.415Z,16.50
2024-03-13T11:49:09.449Z,17.00
2024-03-13T11:51:41.760Z,15.30
2024-03-13T11:54:15.409Z,14.30
2024-03-13T11:56:45.846Z,14.90
2024-03-13T11:59:18.413Z,15.30
2024-03-13T12:01:49.551Z,15.60
2024-03-13T12:04:21.217Z,14.50
2024-03-13T12:06:51.757Z,14.50
2024-03-13T12:09:24.508Z,14.90
2024-03-13T12:11:55.830Z,13.80
2024-03-13T12:14:26.708Z,13.70
2024-03-13T12:16:57.953Z,13.70
2024-03-13T12:19:30.252Z,15.40
2024-03-13T12:22:00.665Z,15.40
2024-03-13T12:24:31.675Z,15.80
2024-03-13T12:27:02.191Z,15.90
2024-03-13T12:29:36.079Z,14.90
2024-03-13T12:32:07.264Z,17.00
2024-03-13T12:34:38.841Z,16.40
2024-03-13T12:37:11.226Z,16.40
2024-03-13T12:39:42.157Z,16.00
2024-03-13T12:42:14.500Z,15.10
2024-03-13T12:44:44.966Z,14.90
2024-03-13T12:47:15.551Z,14.60
2024-03-13T12:49:46.860Z,14.90
2024-03-13T12:52:19.300Z,15.30
2024-03-13T12:54:49.779Z,17.40
2024-03-13T12:57:20.300Z,18.30
2024-03-13T12:59:53.475Z,15.00
2024-03-13T13:02:24.642Z,16.20
2024-03-13T13:04:55.847Z,17.70
2024-03-13T13:07:26.486Z,16.70
2024-03-13T13:09:58.868Z,17.10
2024-03-13T13:12:29.650Z,18.50
2024-03-13T13:15:00.279Z,17.80
2024-03-13T13:17:30.748Z,15.80
2024-03-13T13:20:01.532Z,15.80
2024-03-13T13:22:32.403Z,15.00
2024-03-13T13:25:03.153Z,16.40
2024-03-13T13:27:33.704Z,16.30
2024-03-13T13:30:05.237Z,16.00
2024-03-13T13:32:36.975Z,16.60
2024-03-13T13:35:09.040Z,15.70
2024-03-13T13:37:40.535Z,17.50
2024-03-13T13:40:18.532Z,17.20
2024-03-13T13:42:51.089Z,16.20
2024-03-13T13:45:25.124Z,17.50
2024-03-13T13:47:56.558Z,15.90
2024-03-13T13:50:28.046Z,15.00
2024-03-13T13:52:59.078Z,16.80
2024-03-13T13:55:29.579Z,17.10
2024-03-13T13:58:00.343Z,15.70
2024-03-13T14:00:33.262Z,14.60
2024-03-13T14:03:03.937Z,13.70
2024-03-13T14:05:36.012Z,14.70
2024-03-13T14:08:08.294Z,13.60
2024-03-13T14:10:39.273Z,15.20
2024-03-13T14:13:10.488Z,15.40
2024-03-13T14:15:41.320Z,15.80
2024-03-13T14:18:15.773Z,15.20
2024-03-13T14:20:46.594Z,16.40
2024-03-13T14:23:17.172Z,16.40
2024-03-13T14:25:48.135Z,16.60
2024-03-13T14:28:21.616Z,17.00
2024-03-13T14:30:53.181Z,16.90
2024-03-13T14:33:24.196Z,17.80
2024-03-13T14:35:55.653Z,17.90
2024-03-13T14:38:27.299Z,16.60
2024-03-13T14:40:58.258Z,18.10
2024-03-13T14:43:28.770Z,18.70
2024-03-13T14:45:59.310Z,17.70
2024-03-13T14:48:30.130Z,17.60
2024-03-13T14:51:01.098Z,19.30
2024-03-13T14:53:32.250Z,17.00
2024-03-13T14:56:03.021Z,15.90
2024-03-13T14:58:33.729Z,17.50
2024-03-13T15:01:04.471Z,17.00
2024-03-13T15:03:39.852Z,17.20
2024-03-13T15:06:10.957Z,17.00
2024-03-13T15:08:41.757Z,17.90
2024-03-13T15:11:12.727Z,17.70
2024-03-13T15:13:47.713Z,17.30
2024-03-13T15:16:18.086Z,16.90
2024-03-13T15:18:49.816Z,18.50
2024-03-13T15:21:20.834Z,17.80
2024-03-13T15:23:51.468Z,17.20
2024-03-13T15:26:21.849Z,18.80
2024-03-13T15:28:52.258Z,16.60
2024-03-13T15:31:22.680Z,18.50
2024-03-13T15:33:53.466Z,18.90
2024-03-13T15:36:24.112Z,18.90
2024-03-13T15:38:54.634Z,18.10
2024-03-13T15:41:25.318Z,17.40
2024-03-13T15:43:56.234Z,15.80
2024-03-13T15:46:28.577Z,15.50
2024-03-13T15:48:59.666Z,14.90
2024-03-13T15:51:30.410Z,15.40
2024-03-13T15:54:01.500Z,16.90
2024-03-13T15:56:31.841Z,15.30
2024-03-13T15:59:02.370Z,14.80
2024-03-13T16:01:33.158Z,16.00
2024-03-13T16:04:03.615Z,18.10
2024-03-13T16:06:34.338Z,15.10
2024-03-13T16:09:05.317Z,16.60
2024-03-13T16:11:36.173Z,16.80
2024-03-13T16:14:07.437Z,17.20
2024-03-13T16:16:38.256Z,16.10
2024-03-13T16:19:08.898Z,15.90
2024-03-13T16:21:40.020Z,16.30
2024-03-13T16:24:13.327Z,15.60
2024-03-13T16:26:43.873Z,17.60
2024-03-13T16:29:14.684Z,15.10
2024-03-13T16:31:45.536Z,16.40
2024-03-13T16:34:16.117Z,16.70
2024-03-13T16:36:46.653Z,17.70
2024-03-13T16:39:19.041Z,18.50
2024-03-13T16:41:49.745Z,16.10
2024-03-13T16:44:20.376Z,16.30
2024-03-13T16:46:51.192Z,14.90
2024-03-13T16:49:21.824Z,15.80
2024-03-13T16:51:52.488Z,15.60
2024-03-13T16:54:23.603Z,16.80
2024-03-13T16:56:54.050Z,13.20
2024-03-13T16:59:24.536Z,16.50
2024-03-13T17:01:55.189Z,15.00
2024-03-13T17:04:25.825Z,15.10
2024-03-13T17:06:56.175Z,16.70
2024-03-13T17:09:28.145Z,14.90
2024-03-13T17:11:58.918Z,16.00
2024-03-13T17:14:29.782Z,14.70
2024-03-13T17:17:00.120Z,15.60
2024-03-13T17:19:31.787Z,15.90
2024-03-13T17:22:02.216Z,14.60
2024-03-13T17:24:33.398Z,15.00
2024-03-13T17:27:04.248Z,17.30
2024-03-13T17:29:34.768Z,13.60
2024-03-13T17:32:07.344Z,14.50
2024-03-13T17:34:37.790Z,14.90
2024-03-13T17:37:08.893Z,15.00
2024-03-13T17:39:39.435Z,16.80
2024-03-13T17:42:11.458Z,16.50
2024-03-13T17:44:42.225Z,15.50
2024-03-13T17:47:14.028Z,14.70
2024-03-13T17:49:45.472Z,15.10
2024-03-13T17:52:16.123Z,14.40
2024-03-13T17:54:46.677Z,13.40
2024-03-13T17:57:17.020Z,13.60
2024-03-13T17:59:49.242Z,15.40
2024-03-13T18:02:20.325Z,15.40
2024-03-13T18:04:52.205Z,15.30
2024-03-13T18:07:24.930Z,15.10
2024-03-13T18:09:56.628Z,15.80
2024-03-13T18:12:28.350Z,15.20
2024-03-13T18:14:59.719Z,15.60
2024-03-13T18:17:30.469Z,14.80
2024-03-13T18:20:01.632Z,17.60
2024-03-13T18:22:32.327Z,23.10
2024-03-13T18:25:02.811Z,17.40
2024-03-13T18:27:33.977Z,16.40
2024-03-13T18:30:10.549Z,16.00
2024-03-13T18:32:44.806Z,16.20
2024-03-13T18:35:17.878Z,17.30
2024-03-13T18:37:48.452Z,15.40
2024-03-13T18:40:21.153Z,17.20
2024-03-13T18:42:51.516Z,17.30
2024-03-13T18:45:22.265Z,18.60
2024-03-13T18:47:54.223Z,17.30
2024-03-13T18:50:25.842Z,19.40
2024-03-13T18:52:58.976Z,16.50
2024-03-13T18:55:29.779Z,18.80
2024-03-13T18:58:00.944Z,17.20
2024-03-13T19:00:32.508Z,17.80
2024-03-13T19:03:04.359Z,18.30
2024-03-13T19:05:36.928Z,17.30
2024-03-13T19:08:08.063Z,18.30
2024-03-13T19:10:38.945Z,17.60
2024-03-13T19:13:09.434Z,16.80
2024-03-13T19:15:40.838Z,17.40
2024-03-13T19:18:11.959Z,17.60
2024-03-13T19:20:44.345Z,17.40
2024-03-13T19:23:15.432Z,17.50
2024-03-13T19:25:45.809Z,17.70
2024-03-13T19:28:16.251Z,17.10
2024-03-13T19:30:47.251Z,15.80
2024-03-13T19:33:17.866Z,15.90
2024-03-13T19:35:51.036Z,14.90
2024-03-13T19:38:22.082Z,15.60
2024-03-13T19:40:52.606Z,15.20
2024-03-13T19:43:23.283Z,15.20
2024-03-13T19:45:54.520Z,16.20
2024-03-13T19:48:25.403Z,15.80
2024-03-13T19:50:56.306Z,15.80
2024-03-13T19:53:28.799Z,16.10
2024-03-13T19:55:59.881Z,16.70
2024-03-13T19:58:30.517Z,17.80
2024-03-13T20:01:01.659Z,16.50
2024-03-13T20:03:34.344Z,15.70
2024-03-13T20:06:04.908Z,16.60
2024-03-13T20:08:36.447Z,16.80
2024-03-13T20:11:07.651Z,16.90
2024-03-13T20:13:38.844Z,19.00
2024-03-13T20:16:09.769Z,17.40
2024-03-13T20:18:40.771Z,16.00
2024-03-13T20:21:11.838Z,16.90
2024-03-13T20:23:43.537Z,17.80
2024-03-13T20:26:14.016Z,16.90
2024-03-13T20:28:47.118Z,16.80
2024-03-13T20:31:18.039Z,17.90
2024-03-13T20:33:48.541Z,17.00
2024-03-13T20:36:20.754Z,17.90
2024-03-13T20:38:52.929Z,16.50
2024-03-13T20:41:23.574Z,17.60
2024-03-13T20:43:53.964Z,17.50
2024-03-13T20:46:24.495Z,17.50
2024-03-13T20:48:56.009Z,18.30
2024-03-13T20:51:26.802Z,17.80
2024-03-13T20:53:57.644Z,19.80
2024-03-13T20:56:28.714Z,20.60
2024-03-13T20:58:59.882Z,21.60
2024-03-13T21:01:31.028Z,20.30
2024-03-13T21:04:02.172Z,18.60
2024-03-13T21:06:33.739Z,18.20
2024-03-13T21:09:05.035Z,19.20
2024-03-13T21:11:35.677Z,19.00
2024-03-13T21:14:05.997Z,19.30
2024-03-13T21:16:36.541Z,19.00
2024-03-13T21:19:06.943Z,16.80
2024-03-13T21:21:37.580Z,17.80
2024-03-13T21:24:08.423Z,18.50
2024-03-13T21:26:41.888Z,20.40
2024-03-13T21:29:15.702Z,21.10
2024-03-13T21:31:46.719Z,19.20
2024-03-13T21:34:21.351Z,19.60
2024-03-13T21:36:58.577Z,19.80
2024-03-13T21:39:29.209Z,18.50
2024-03-13T21:41:59.795Z,18.30
2024-03-13T21:44:31.591Z,18.90
2024-03-13T21:47:02.079Z,18.20
2024-03-13T21:49:34.057Z,17.60
2024-03-13T21:52:05.107Z,18.50
2024-03-13T21:54:35.822Z,17.90
2024-03-13T21:57:07.833Z,18.60
2024-03-13T21:59:38.801Z,18.70
2024-03-13T22:02:09.307Z,17.30
2024-03-13T22:04:40.514Z,19.10
2024-03-13T22:07:11.295Z,17.80
2024-03-13T22:09:41.916Z,19.30
2024-03-13T22:12:12.530Z,19.50
2024-03-13T22:14:44.576Z,20.10
2024-03-13T22:17:15.838Z,19.50
2024-03-13T22:19:46.669Z,19.60
2024-03-13T22:22:17.091Z,19.10
2024-03-13T22:24:48.683Z,20.30
2024-03-13T22:27:19.169Z,19.40
2024-03-13T22:29:50.496Z,18.30
2024-03-13T22:32:21.224Z,19.70
2024-03-13T22:34:51.582Z,19.90
2024-03-13T22:37:22.236Z,21.40
2024-03-13T22:39:52.766Z,20.30
2024-03-13T22:42:23.979Z,18.60
2024-03-13T22:44:55.116Z,20.90
2024-03-13T22:47:28.409Z,20.60
2024-03-13T22:50:00.857Z,21.20
2024-03-13T22:52:31.415Z,20.90
2024-03-13T22:55:01.785Z,20.40
2024-03-13T22:57:32.599Z,18.00
2024-03-13T23:00:12.271Z,19.90
2024-03-13T23:02:44.665Z,20.70
2024-03-13T23:05:15.556Z,21.30
2024-03-13T23:07:52.584Z,19.40
2024-03-13T23:10:23.414Z,20.90
2024-03-13T23:12:54.553Z,19.40
2024-03-13T23:15:27.670Z,18.70
2024-03-13T23:17:59.317Z,19.90
2024-03-13T23:20:38.362Z,20.00
2024-03-13T23:23:09.397Z,25.20
2024-03-13T23:25:39.989Z,20.50
2024-03-13T23:28:10.758Z,19.80
2024-03-13T23:30:41.940Z,19.30
2024-03-13T23:33:13.309Z,20.50
2024-03-13T23:35:44.696Z,18.10
2024-03-13T23:38:15.943Z,17.20
2024-03-13T23:40:47.117Z,19.20
2024-03-13T23:43:18.074Z,20.10
2024-03-13T23:45:49.228Z,18.50
2024-03-13T23:48:21.101Z,20.20
2024-03-13T23:50:52.341Z,19.20
2024-03-13T23:53:22.718Z,19.70
2024-03-13T23:55:55.207Z,19.10
2024-03-13T23:58:26.303Z,17.70
